»·PEaware :: N172RB L62-KSBP

N172RB :: L62-KSBP

FLIGHT INFORMATION

Flight Status: Arrived
Operator: Privately registered:
United States
More flights under this callsign
Pilot: Newton D. (19172)
Aircraft: CESSNA 172 SKYHAWK
(C172)
More flights by this aircraft type
Origin: L62 Elk Hills-Buttonwillow
United States
Destination: KSBP San Luis Co Regl
United States
More flights between these airports :: More routes between these airports
Route: DCT
File this flight plan on PilotEdge
Remarks:
Altitude:
(Current/Filed)
6,500ft
Speed:
(Current/Filed)
124kts
Departed: 14-May-18 02:44 PM
Arrived: 14-May-18 03:22 PM
Distance/Time
Traveled:
58nm/0:38
Distance/Time
To Go:
Arrived

Flight Plot

Page will automatically refresh every two minutes.

Flight plan parsing failed; only flown route is shown


Map Options




Map Legend


Flown Route
Filed Route
Departure Airport
Arrival Airport
Navaid (VOR, NDB)
Fix

Horizontal Profiles

Position Reports

Time Latitude Longitude Heading Altitude Ground
Speed
14-May-18 14:29 35.352660 -119.480749 45 331ft 0kts
14-May-18 14:30 35.352660 -119.480749 45 331ft 0kts
14-May-18 14:31 35.352660 -119.480749 45 331ft 0kts
14-May-18 14:32 35.352660 -119.480749 45 331ft 0kts
14-May-18 14:33 35.352660 -119.480749 45 331ft 0kts
14-May-18 14:34 35.352660 -119.480749 45 331ft 0kts
14-May-18 14:35 35.352660 -119.480749 45 331ft 0kts
14-May-18 14:36 35.352660 -119.480749 45 331ft 0kts
14-May-18 14:37 35.352660 -119.480749 45 331ft 0kts
14-May-18 14:38 35.352660 -119.480749 45 331ft 0kts
14-May-18 14:39 35.352660 -119.480749 45 331ft 0kts
14-May-18 14:40 35.352660 -119.480749 45 331ft 0kts
14-May-18 14:41 35.352660 -119.480748 46 331ft 0kts
14-May-18 14:42 35.352995 -119.479263 109 328ft 4kts
14-May-18 14:43 35.349826 -119.475593 339 323ft 6kts
14-May-18 14:44 35.353133 -119.479309 315 330ft 73kts
14-May-18 14:45 35.366199 -119.497129 307 1185ft 69kts
14-May-18 14:46 35.382436 -119.507209 50 1929ft 74kts
14-May-18 14:47 35.372420 -119.504693 262 2685ft 74kts
14-May-18 14:48 35.369647 -119.529976 259 3366ft 80kts
14-May-18 14:49 35.362242 -119.555498 238 4027ft 82kts
14-May-18 14:50 35.349931 -119.578893 248 4668ft 82kts
14-May-18 14:51 35.341939 -119.605590 256 5282ft 84kts
14-May-18 14:52 35.338257 -119.633357 263 5862ft 84kts
14-May-18 14:53 35.334704 -119.660973 265 6408ft 85kts
14-May-18 14:54 35.331204 -119.695147 265 6507ft 117kts
14-May-18 14:55 35.327740 -119.735684 264 6497ft 121kts
14-May-18 14:56 35.324770 -119.775535 265 6483ft 115kts
14-May-18 14:57 35.320718 -119.813262 263 6499ft 112kts
14-May-18 14:58 35.316317 -119.851327 262 6499ft 112kts
14-May-18 14:59 35.311918 -119.887999 262 6500ft 112kts
14-May-18 15:00 35.307420 -119.925992 262 6500ft 112kts
14-May-18 15:01 35.302932 -119.964024 263 6499ft 112kts
14-May-18 15:02 35.298484 -120.001972 263 6499ft 112kts
14-May-18 15:03 35.294045 -120.039985 263 6499ft 112kts
14-May-18 15:04 35.289663 -120.077646 263 6499ft 112kts
14-May-18 15:05 35.285178 -120.115680 263 6500ft 112kts
14-May-18 15:06 35.281600 -120.153520 272 6499ft 112kts
14-May-18 15:07 35.284019 -120.191512 265 6499ft 112kts
14-May-18 15:08 35.280196 -120.229595 264 6499ft 111kts
14-May-18 15:09 35.276379 -120.266279 264 6499ft 107kts
14-May-18 15:10 35.272664 -120.302096 264 6500ft 106kts
14-May-18 15:11 35.268930 -120.338060 264 6500ft 106kts
14-May-18 15:12 35.265145 -120.373930 264 6500ft 106kts
14-May-18 15:13 35.258207 -120.408417 238 6504ft 102kts
14-May-18 15:14 35.240885 -120.436722 226 6321ft 106kts
14-May-18 15:15 35.220815 -120.463921 233 6042ft 106kts
14-May-18 15:16 35.201928 -120.491643 231 5513ft 107kts
14-May-18 15:17 35.187542 -120.522001 282 4981ft 106kts
14-May-18 15:18 35.194135 -120.555742 288 3795ft 113kts
14-May-18 15:19 35.207680 -120.589852 304 2398ft 115kts
14-May-18 15:20 35.225574 -120.620064 302 1094ft 106kts
14-May-18 15:21 35.241223 -120.647914 301 160ft 56kts
14-May-18 15:22 35.242575 -120.647956 116 158ft 11kts
14-May-18 15:23 35.241146 -120.645041 102 171ft 0kts
14-May-18 15:24 35.241146 -120.645041 102 171ft 0kts
14-May-18 15:25 35.241147 -120.645042 102 171ft 0kts
14-May-18 15:26 35.241147 -120.645042 102 171ft 0kts
14-May-18 15:27 35.241147 -120.645042 102 171ft 0kts
14-May-18 15:28 35.241147 -120.645042 102 171ft 0kts
14-May-18 15:29 35.241147 -120.645042 102 171ft 0kts
14-May-18 15:30 35.241147 -120.645042 102 171ft 0kts
14-May-18 15:31 35.241147 -120.645042 102 171ft 0kts
14-May-18 15:32 35.241147 -120.645042 102 171ft 0kts
14-May-18 15:33 35.241147 -120.645042 102 171ft 0kts
14-May-18 15:34 35.241147 -120.645042 102 171ft 0kts
14-May-18 15:35 35.241147 -120.645042 102 171ft 0kts
14-May-18 15:36 35.241147 -120.645042 102 171ft 0kts

Navigation Log

Ident Type
Flight plan parsing failed, navigation log unavailable